sensor_id;sensor_type;location;lat;lon;timestamp;P1;durP1;ratioP1;P2;durP2;ratioP2
9629;SDS011;16022;50.884;4.698;2022-07-06T00:00:20;2.60;;;2.40;;
9629;SDS011;16022;50.884;4.698;2022-07-06T00:02:48;6.53;;;2.55;;
9629;SDS011;16022;50.884;4.698;2022-07-06T00:05:16;4.90;;;2.00;;
9629;SDS011;16022;50.884;4.698;2022-07-06T00:07:43;4.70;;;2.25;;
9629;SDS011;16022;50.884;4.698;2022-07-06T00:10:10;4.05;;;2.40;;
9629;SDS011;16022;50.884;4.698;2022-07-06T00:12:38;2.95;;;2.35;;
9629;SDS011;16022;50.884;4.698;2022-07-06T00:15:06;2.72;;;2.10;;
9629;SDS011;16022;50.884;4.698;2022-07-06T00:17:33;4.47;;;2.60;;
9629;SDS011;16022;50.884;4.698;2022-07-06T00:20:02;3.13;;;2.15;;
9629;SDS011;16022;50.884;4.698;2022-07-06T00:22:30;4.10;;;2.40;;
9629;SDS011;16022;50.884;4.698;2022-07-06T00:24:58;2.90;;;2.13;;
9629;SDS011;16022;50.884;4.698;2022-07-06T00:27:26;8.90;;;2.53;;
9629;SDS011;16022;50.884;4.698;2022-07-06T00:29:54;4.18;;;2.60;;
9629;SDS011;16022;50.884;4.698;2022-07-06T00:32:21;3.25;;;2.47;;
9629;SDS011;16022;50.884;4.698;2022-07-06T00:34:49;5.30;;;2.90;;
9629;SDS011;16022;50.884;4.698;2022-07-06T00:37:17;6.60;;;3.03;;
9629;SDS011;16022;50.884;4.698;2022-07-06T00:39:44;5.30;;;2.90;;
9629;SDS011;16022;50.884;4.698;2022-07-06T00:42:12;4.63;;;2.80;;
9629;SDS011;16022;50.884;4.698;2022-07-06T00:44:40;3.30;;;2.50;;
9629;SDS011;16022;50.884;4.698;2022-07-06T00:47:08;5.18;;;2.47;;
9629;SDS011;16022;50.884;4.698;2022-07-06T00:49:35;3.42;;;2.50;;
9629;SDS011;16022;50.884;4.698;2022-07-06T00:52:21;5.88;;;3.10;;
9629;SDS011;16022;50.884;4.698;2022-07-06T00:54:48;4.68;;;2.90;;
9629;SDS011;16022;50.884;4.698;2022-07-06T00:57:16;4.85;;;2.83;;
9629;SDS011;16022;50.884;4.698;2022-07-06T00:59:44;4.22;;;3.15;;
9629;SDS011;16022;50.884;4.698;2022-07-06T01:02:12;4.80;;;3.05;;
9629;SDS011;16022;50.884;4.698;2022-07-06T01:04:40;5.13;;;3.00;;
9629;SDS011;16022;50.884;4.698;2022-07-06T01:07:07;4.45;;;2.63;;
9629;SDS011;16022;50.884;4.698;2022-07-06T01:09:35;3.33;;;3.00;;
9629;SDS011;16022;50.884;4.698;2022-07-06T01:12:03;3.83;;;2.83;;
9629;SDS011;16022;50.884;4.698;2022-07-06T01:14:31;4.95;;;3.00;;
9629;SDS011;16022;50.884;4.698;2022-07-06T01:16:59;3.38;;;2.60;;
9629;SDS011;16022;50.884;4.698;2022-07-06T01:19:26;4.90;;;3.38;;
9629;SDS011;16022;50.884;4.698;2022-07-06T01:21:54;4.15;;;2.55;;
9629;SDS011;16022;50.884;4.698;2022-07-06T01:24:22;4.88;;;2.83;;
9629;SDS011;16022;50.884;4.698;2022-07-06T01:26:49;7.10;;;3.00;;
9629;SDS011;16022;50.884;4.698;2022-07-06T01:29:17;5.95;;;2.80;;
9629;SDS011;16022;50.884;4.698;2022-07-06T01:31:46;4.20;;;2.92;;
9629;SDS011;16022;50.884;4.698;2022-07-06T01:34:15;4.05;;;2.83;;
9629;SDS011;16022;50.884;4.698;2022-07-06T01:36:45;4.82;;;2.75;;
9629;SDS011;16022;50.884;4.698;2022-07-06T01:39:13;3.92;;;2.92;;
9629;SDS011;16022;50.884;4.698;2022-07-06T01:41:40;3.53;;;2.78;;
9629;SDS011;16022;50.884;4.698;2022-07-06T01:44:08;4.97;;;3.08;;
9629;SDS011;16022;50.884;4.698;2022-07-06T01:46:36;3.35;;;3.03;;
9629;SDS011;16022;50.884;4.698;2022-07-06T01:49:03;5.63;;;3.45;;
9629;SDS011;16022;50.884;4.698;2022-07-06T01:51:31;3.10;;;2.80;;
9629;SDS011;16022;50.884;4.698;2022-07-06T01:53:58;5.15;;;3.30;;
9629;SDS011;16022;50.884;4.698;2022-07-06T01:56:26;4.55;;;3.20;;
9629;SDS011;16022;50.884;4.698;2022-07-06T01:58:53;6.50;;;3.33;;
9629;SDS011;16022;50.884;4.698;2022-07-06T02:01:21;5.38;;;3.15;;
9629;SDS011;16022;50.884;4.698;2022-07-06T02:03:48;3.95;;;2.92;;
9629;SDS011;16022;50.884;4.698;2022-07-06T02:06:16;5.50;;;2.92;;
9629;SDS011;16022;50.884;4.698;2022-07-06T02:08:43;4.65;;;2.90;;
9629;SDS011;16022;50.884;4.698;2022-07-06T02:11:11;4.07;;;2.75;;
9629;SDS011;16022;50.884;4.698;2022-07-06T02:13:39;3.28;;;2.63;;
9629;SDS011;16022;50.884;4.698;2022-07-06T02:16:06;5.30;;;3.20;;
9629;SDS011;16022;50.884;4.698;2022-07-06T02:18:35;3.72;;;2.63;;
9629;SDS011;16022;50.884;4.698;2022-07-06T02:21:03;3.92;;;2.95;;
9629;SDS011;16022;50.884;4.698;2022-07-06T02:23:31;5.43;;;2.80;;
9629;SDS011;16022;50.884;4.698;2022-07-06T02:25:58;3.67;;;3.00;;
9629;SDS011;16022;50.884;4.698;2022-07-06T02:28:26;5.70;;;2.80;;
9629;SDS011;16022;50.884;4.698;2022-07-06T02:30:53;4.20;;;3.20;;
9629;SDS011;16022;50.884;4.698;2022-07-06T02:33:21;3.17;;;2.85;;
9629;SDS011;16022;50.884;4.698;2022-07-06T02:35:48;6.18;;;3.00;;
9629;SDS011;16022;50.884;4.698;2022-07-06T02:38:17;3.35;;;2.88;;
9629;SDS011;16022;50.884;4.698;2022-07-06T02:40:45;3.65;;;3.10;;
9629;SDS011;16022;50.884;4.698;2022-07-06T02:43:12;8.00;;;3.00;;
9629;SDS011;16022;50.884;4.698;2022-07-06T02:45:40;4.43;;;3.30;;
9629;SDS011;16022;50.884;4.698;2022-07-06T03:11:01;5.85;;;3.35;;
9629;SDS011;16022;50.884;4.698;2022-07-06T03:13:29;5.05;;;3.28;;
9629;SDS011;16022;50.884;4.698;2022-07-06T03:15:57;4.88;;;2.90;;
9629;SDS011;16022;50.884;4.698;2022-07-06T03:18:24;5.43;;;3.40;;
9629;SDS011;16022;50.884;4.698;2022-07-06T03:20:52;4.95;;;3.88;;
9629;SDS011;16022;50.884;4.698;2022-07-06T03:23:20;5.03;;;3.22;;
9629;SDS011;16022;50.884;4.698;2022-07-06T03:25:47;6.38;;;3.22;;
9629;SDS011;16022;50.884;4.698;2022-07-06T03:28:15;3.22;;;2.78;;
9629;SDS011;16022;50.884;4.698;2022-07-06T03:30:42;4.43;;;3.20;;
9629;SDS011;16022;50.884;4.698;2022-07-06T03:33:09;7.53;;;3.67;;
9629;SDS011;16022;50.884;4.698;2022-07-06T03:35:37;7.75;;;3.30;;
9629;SDS011;16022;50.884;4.698;2022-07-06T03:38:04;4.57;;;3.17;;
9629;SDS011;16022;50.884;4.698;2022-07-06T03:40:31;5.90;;;3.10;;
9629;SDS011;16022;50.884;4.698;2022-07-06T03:42:59;6.40;;;3.40;;
9629;SDS011;16022;50.884;4.698;2022-07-06T03:45:26;15.50;;;3.88;;
9629;SDS011;16022;50.884;4.698;2022-07-06T03:47:53;7.60;;;3.55;;
9629;SDS011;16022;50.884;4.698;2022-07-06T03:50:21;5.07;;;3.67;;
9629;SDS011;16022;50.884;4.698;2022-07-06T03:52:48;9.68;;;4.13;;
9629;SDS011;16022;50.884;4.698;2022-07-06T03:55:15;6.40;;;3.70;;
9629;SDS011;16022;50.884;4.698;2022-07-06T03:57:43;5.35;;;3.25;;
9629;SDS011;16022;50.884;4.698;2022-07-06T04:00:10;6.00;;;3.40;;
9629;SDS011;16022;50.884;4.698;2022-07-06T04:02:38;4.30;;;3.30;;
9629;SDS011;16022;50.884;4.698;2022-07-06T04:05:06;3.38;;;3.08;;
9629;SDS011;16022;50.884;4.698;2022-07-06T04:07:33;5.93;;;3.60;;
9629;SDS011;16022;50.884;4.698;2022-07-06T04:10:01;3.45;;;3.13;;
9629;SDS011;16022;50.884;4.698;2022-07-06T04:12:30;4.05;;;2.97;;
9629;SDS011;16022;50.884;4.698;2022-07-06T04:14:57;6.38;;;3.35;;
9629;SDS011;16022;50.884;4.698;2022-07-06T04:17:25;5.50;;;3.80;;
9629;SDS011;16022;50.884;4.698;2022-07-06T04:20:11;6.88;;;3.47;;
9629;SDS011;16022;50.884;4.698;2022-07-06T04:22:39;5.10;;;3.40;;
9629;SDS011;16022;50.884;4.698;2022-07-06T04:25:06;5.22;;;3.30;;
9629;SDS011;16022;50.884;4.698;2022-07-06T04:27:35;3.95;;;3.15;;
9629;SDS011;16022;50.884;4.698;2022-07-06T04:30:03;3.42;;;3.00;;
9629;SDS011;16022;50.884;4.698;2022-07-06T04:32:31;6.22;;;3.30;;
9629;SDS011;16022;50.884;4.698;2022-07-06T04:34:58;3.38;;;3.05;;
9629;SDS011;16022;50.884;4.698;2022-07-06T04:37:27;4.97;;;3.30;;
9629;SDS011;16022;50.884;4.698;2022-07-06T04:39:54;6.18;;;3.53;;
9629;SDS011;16022;50.884;4.698;2022-07-06T04:42:21;8.18;;;3.38;;
9629;SDS011;16022;50.884;4.698;2022-07-06T04:44:49;3.95;;;2.95;;
9629;SDS011;16022;50.884;4.698;2022-07-06T04:47:18;3.92;;;3.35;;
9629;SDS011;16022;50.884;4.698;2022-07-06T04:49:46;3.53;;;2.88;;
9629;SDS011;16022;50.884;4.698;2022-07-06T04:52:13;4.85;;;3.42;;
9629;SDS011;16022;50.884;4.698;2022-07-06T04:54:41;3.42;;;2.92;;
9629;SDS011;16022;50.884;4.698;2022-07-06T04:57:08;5.32;;;2.97;;
9629;SDS011;16022;50.884;4.698;2022-07-06T04:59:38;3.10;;;2.80;;
9629;SDS011;16022;50.884;4.698;2022-07-06T05:02:06;4.13;;;2.83;;
9629;SDS011;16022;50.884;4.698;2022-07-06T05:04:33;4.68;;;3.00;;
9629;SDS011;16022;50.884;4.698;2022-07-06T05:07:01;12.05;;;3.58;;
9629;SDS011;16022;50.884;4.698;2022-07-06T05:09:28;8.43;;;3.08;;
9629;SDS011;16022;50.884;4.698;2022-07-06T05:11:56;6.60;;;2.90;;
9629;SDS011;16022;50.884;4.698;2022-07-06T05:14:24;7.82;;;3.78;;
9629;SDS011;16022;50.884;4.698;2022-07-06T05:16:51;7.90;;;3.20;;
9629;SDS011;16022;50.884;4.698;2022-07-06T05:19:20;9.65;;;3.05;;
9629;SDS011;16022;50.884;4.698;2022-07-06T05:21:49;11.00;;;3.13;;
9629;SDS011;16022;50.884;4.698;2022-07-06T05:24:16;6.65;;;3.30;;
9629;SDS011;16022;50.884;4.698;2022-07-06T05:26:45;9.60;;;3.13;;
9629;SDS011;16022;50.884;4.698;2022-07-06T05:29:13;5.13;;;2.70;;
9629;SDS011;16022;50.884;4.698;2022-07-06T05:31:40;7.28;;;3.10;;
9629;SDS011;16022;50.884;4.698;2022-07-06T05:34:08;5.72;;;3.40;;
9629;SDS011;16022;50.884;4.698;2022-07-06T05:36:35;7.22;;;3.95;;
9629;SDS011;16022;50.884;4.698;2022-07-06T05:39:03;6.25;;;3.00;;
9629;SDS011;16022;50.884;4.698;2022-07-06T05:41:32;3.45;;;2.85;;
9629;SDS011;16022;50.884;4.698;2022-07-06T05:44:00;8.57;;;3.60;;
9629;SDS011;16022;50.884;4.698;2022-07-06T05:46:27;6.80;;;3.80;;
9629;SDS011;16022;50.884;4.698;2022-07-06T05:48:55;6.05;;;3.63;;
9629;SDS011;16022;50.884;4.698;2022-07-06T05:51:41;8.38;;;3.40;;
9629;SDS011;16022;50.884;4.698;2022-07-06T05:54:08;6.45;;;3.47;;
9629;SDS011;16022;50.884;4.698;2022-07-06T05:56:36;6.68;;;3.85;;
9629;SDS011;16022;50.884;4.698;2022-07-06T05:59:03;6.78;;;3.97;;
9629;SDS011;16022;50.884;4.698;2022-07-06T06:01:32;10.90;;;4.18;;
9629;SDS011;16022;50.884;4.698;2022-07-06T06:04:00;9.55;;;4.50;;
9629;SDS011;16022;50.884;4.698;2022-07-06T06:06:28;10.23;;;3.95;;
9629;SDS011;16022;50.884;4.698;2022-07-06T06:08:57;8.50;;;3.70;;
9629;SDS011;16022;50.884;4.698;2022-07-06T06:11:25;5.40;;;3.42;;
9629;SDS011;16022;50.884;4.698;2022-07-06T06:13:52;6.38;;;3.78;;
9629;SDS011;16022;50.884;4.698;2022-07-06T06:16:20;6.53;;;3.50;;
9629;SDS011;16022;50.884;4.698;2022-07-06T06:18:48;8.23;;;3.58;;
9629;SDS011;16022;50.884;4.698;2022-07-06T06:21:15;5.70;;;3.75;;
9629;SDS011;16022;50.884;4.698;2022-07-06T06:23:43;6.70;;;3.70;;
9629;SDS011;16022;50.884;4.698;2022-07-06T06:26:10;11.45;;;4.30;;
9629;SDS011;16022;50.884;4.698;2022-07-06T06:28:38;19.85;;;5.50;;
9629;SDS011;16022;50.884;4.698;2022-07-06T06:31:08;31.77;;;6.70;;
9629;SDS011;16022;50.884;4.698;2022-07-06T06:33:36;32.70;;;6.22;;
9629;SDS011;16022;50.884;4.698;2022-07-06T06:36:04;7.75;;;3.80;;
9629;SDS011;16022;50.884;4.698;2022-07-06T06:38:32;8.70;;;3.55;;
9629;SDS011;16022;50.884;4.698;2022-07-06T06:41:00;4.68;;;2.92;;
9629;SDS011;16022;50.884;4.698;2022-07-06T06:43:28;5.35;;;2.88;;
9629;SDS011;16022;50.884;4.698;2022-07-06T06:45:56;6.25;;;2.92;;
9629;SDS011;16022;50.884;4.698;2022-07-06T06:48:23;7.55;;;3.42;;
9629;SDS011;16022;50.884;4.698;2022-07-06T06:50:51;5.15;;;3.42;;
9629;SDS011;16022;50.884;4.698;2022-07-06T06:53:18;5.28;;;3.03;;
9629;SDS011;16022;50.884;4.698;2022-07-06T06:55:46;4.78;;;3.13;;
9629;SDS011;16022;50.884;4.698;2022-07-06T06:58:14;6.15;;;3.58;;
9629;SDS011;16022;50.884;4.698;2022-07-06T07:00:41;8.15;;;3.75;;
9629;SDS011;16022;50.884;4.698;2022-07-06T07:03:09;9.40;;;3.22;;
9629;SDS011;16022;50.884;4.698;2022-07-06T07:05:37;5.03;;;3.05;;
9629;SDS011;16022;50.884;4.698;2022-07-06T07:08:05;6.15;;;2.80;;
9629;SDS011;16022;50.884;4.698;2022-07-06T07:10:34;4.95;;;2.20;;
9629;SDS011;16022;50.884;4.698;2022-07-06T07:13:03;6.53;;;2.63;;
9629;SDS011;16022;50.884;4.698;2022-07-06T07:15:30;4.65;;;2.08;;
9629;SDS011;16022;50.884;4.698;2022-07-06T07:17:58;4.03;;;2.00;;
9629;SDS011;16022;50.884;4.698;2022-07-06T07:20:26;3.55;;;2.10;;
9629;SDS011;16022;50.884;4.698;2022-07-06T07:22:56;5.07;;;1.98;;
9629;SDS011;16022;50.884;4.698;2022-07-06T07:25:24;3.15;;;1.55;;
9629;SDS011;16022;50.884;4.698;2022-07-06T07:27:52;1.58;;;1.33;;
9629;SDS011;16022;50.884;4.698;2022-07-06T07:30:19;2.88;;;1.08;;
9629;SDS011;16022;50.884;4.698;2022-07-06T07:32:47;3.33;;;1.40;;
9629;SDS011;16022;50.884;4.698;2022-07-06T07:35:15;7.50;;;1.30;;
9629;SDS011;16022;50.884;4.698;2022-07-06T07:37:42;3.40;;;1.42;;
9629;SDS011;16022;50.884;4.698;2022-07-06T07:40:11;2.10;;;1.30;;
9629;SDS011;16022;50.884;4.698;2022-07-06T07:42:38;2.75;;;1.23;;
9629;SDS011;16022;50.884;4.698;2022-07-06T07:45:07;3.47;;;1.30;;
9629;SDS011;16022;50.884;4.698;2022-07-06T07:47:35;3.15;;;1.35;;
9629;SDS011;16022;50.884;4.698;2022-07-06T07:50:03;1.42;;;1.20;;
9629;SDS011;16022;50.884;4.698;2022-07-06T07:52:31;2.00;;;1.20;;
9629;SDS011;16022;50.884;4.698;2022-07-06T07:54:59;3.35;;;1.83;;
9629;SDS011;16022;50.884;4.698;2022-07-06T07:57:48;3.55;;;1.50;;
9629;SDS011;16022;50.884;4.698;2022-07-06T08:00:15;4.45;;;1.70;;
9629;SDS011;16022;50.884;4.698;2022-07-06T08:02:50;2.05;;;1.15;;
9629;SDS011;16022;50.884;4.698;2022-07-06T08:05:18;6.35;;;2.10;;
9629;SDS011;16022;50.884;4.698;2022-07-06T08:07:45;5.03;;;1.17;;
9629;SDS011;16022;50.884;4.698;2022-07-06T08:10:13;5.03;;;1.30;;
9629;SDS011;16022;50.884;4.698;2022-07-06T08:12:41;6.63;;;1.70;;
9629;SDS011;16022;50.884;4.698;2022-07-06T08:15:11;3.33;;;1.60;;
9629;SDS011;16022;50.884;4.698;2022-07-06T08:17:39;4.15;;;1.52;;
9629;SDS011;16022;50.884;4.698;2022-07-06T08:20:07;2.72;;;1.50;;
9629;SDS011;16022;50.884;4.698;2022-07-06T08:22:35;2.78;;;1.48;;
9629;SDS011;16022;50.884;4.698;2022-07-06T08:25:03;3.13;;;1.25;;
9629;SDS011;16022;50.884;4.698;2022-07-06T08:27:30;8.65;;;1.80;;
9629;SDS011;16022;50.884;4.698;2022-07-06T08:29:58;6.57;;;1.88;;
9629;SDS011;16022;50.884;4.698;2022-07-06T08:32:27;5.25;;;1.70;;
9629;SDS011;16022;50.884;4.698;2022-07-06T08:35:14;3.75;;;1.25;;
9629;SDS011;16022;50.884;4.698;2022-07-06T08:37:42;3.83;;;1.48;;
9629;SDS011;16022;50.884;4.698;2022-07-06T08:40:10;3.15;;;1.60;;
9629;SDS011;16022;50.884;4.698;2022-07-06T08:42:38;2.70;;;1.67;;
9629;SDS011;16022;50.884;4.698;2022-07-06T08:45:06;1.60;;;1.20;;
9629;SDS011;16022;50.884;4.698;2022-07-06T08:47:37;3.30;;;1.60;;
9629;SDS011;16022;50.884;4.698;2022-07-06T08:50:05;5.25;;;1.50;;
9629;SDS011;16022;50.884;4.698;2022-07-06T08:52:33;4.32;;;1.30;;
9629;SDS011;16022;50.884;4.698;2022-07-06T08:55:02;2.22;;;1.17;;
9629;SDS011;16022;50.884;4.698;2022-07-06T08:57:30;3.88;;;1.70;;
9629;SDS011;16022;50.884;4.698;2022-07-06T08:59:57;3.40;;;1.40;;
9629;SDS011;16022;50.884;4.698;2022-07-06T09:02:25;2.85;;;1.58;;
9629;SDS011;16022;50.884;4.698;2022-07-06T09:04:54;4.32;;;1.80;;
9629;SDS011;16022;50.884;4.698;2022-07-06T09:07:23;10.35;;;2.03;;
9629;SDS011;16022;50.884;4.698;2022-07-06T09:10:12;4.63;;;1.75;;
9629;SDS011;16022;50.884;4.698;2022-07-06T09:12:39;5.05;;;1.85;;
9629;SDS011;16022;50.884;4.698;2022-07-06T09:15:07;5.22;;;1.45;;
9629;SDS011;16022;50.884;4.698;2022-07-06T09:17:37;5.28;;;1.50;;
9629;SDS011;16022;50.884;4.698;2022-07-06T09:20:09;6.18;;;2.67;;
9629;SDS011;16022;50.884;4.698;2022-07-06T09:22:37;3.72;;;1.98;;
9629;SDS011;16022;50.884;4.698;2022-07-06T09:25:05;7.30;;;1.75;;
9629;SDS011;16022;50.884;4.698;2022-07-06T09:27:40;3.60;;;1.77;;
9629;SDS011;16022;50.884;4.698;2022-07-06T09:30:09;3.95;;;1.52;;
9629;SDS011;16022;50.884;4.698;2022-07-06T09:35:08;4.18;;;1.55;;
9629;SDS011;16022;50.884;4.698;2022-07-06T09:37:35;3.53;;;1.70;;
9629;SDS011;16022;50.884;4.698;2022-07-06T09:40:03;4.38;;;1.92;;
9629;SDS011;16022;50.884;4.698;2022-07-06T09:42:44;6.45;;;2.13;;
9629;SDS011;16022;50.884;4.698;2022-07-06T09:45:11;3.10;;;1.42;;
9629;SDS011;16022;50.884;4.698;2022-07-06T09:47:39;4.40;;;1.65;;
9629;SDS011;16022;50.884;4.698;2022-07-06T09:50:14;2.20;;;1.27;;
9629;SDS011;16022;50.884;4.698;2022-07-06T09:52:52;3.25;;;1.45;;
9629;SDS011;16022;50.884;4.698;2022-07-06T09:55:21;3.63;;;1.70;;
9629;SDS011;16022;50.884;4.698;2022-07-06T09:57:52;4.22;;;1.40;;
9629;SDS011;16022;50.884;4.698;2022-07-06T10:00:21;3.35;;;1.40;;
9629;SDS011;16022;50.884;4.698;2022-07-06T10:02:48;4.43;;;1.35;;
9629;SDS011;16022;50.884;4.698;2022-07-06T10:05:21;2.60;;;1.50;;
9629;SDS011;16022;50.884;4.698;2022-07-06T10:07:56;5.70;;;1.80;;
9629;SDS011;16022;50.884;4.698;2022-07-06T10:10:25;1.95;;;1.40;;
9629;SDS011;16022;50.884;4.698;2022-07-06T10:12:56;3.35;;;1.80;;
9629;SDS011;16022;50.884;4.698;2022-07-06T10:15:26;4.65;;;1.60;;
9629;SDS011;16022;50.884;4.698;2022-07-06T10:17:55;4.28;;;1.35;;
9629;SDS011;16022;50.884;4.698;2022-07-06T10:20:22;2.42;;;1.52;;
9629;SDS011;16022;50.884;4.698;2022-07-06T10:22:50;5.25;;;1.55;;
9629;SDS011;16022;50.884;4.698;2022-07-06T10:25:18;1.95;;;1.35;;
9629;SDS011;16022;50.884;4.698;2022-07-06T10:27:46;2.60;;;1.40;;
9629;SDS011;16022;50.884;4.698;2022-07-06T10:30:15;1.75;;;1.08;;
9629;SDS011;16022;50.884;4.698;2022-07-06T10:32:44;3.17;;;1.48;;
9629;SDS011;16022;50.884;4.698;2022-07-06T10:35:13;1.90;;;1.10;;
9629;SDS011;16022;50.884;4.698;2022-07-06T10:37:40;2.15;;;1.50;;
9629;SDS011;16022;50.884;4.698;2022-07-06T10:40:10;3.75;;;1.20;;
9629;SDS011;16022;50.884;4.698;2022-07-06T10:43:00;4.35;;;1.40;;
9629;SDS011;16022;50.884;4.698;2022-07-06T10:50:45;3.05;;;1.60;;
9629;SDS011;16022;50.884;4.698;2022-07-06T10:53:14;3.75;;;1.67;;
9629;SDS011;16022;50.884;4.698;2022-07-06T10:55:45;2.67;;;1.50;;
9629;SDS011;16022;50.884;4.698;2022-07-06T10:58:14;2.67;;;1.67;;
9629;SDS011;16022;50.884;4.698;2022-07-06T11:06:06;2.40;;;1.48;;
9629;SDS011;16022;50.884;4.698;2022-07-06T11:08:42;5.65;;;1.75;;
9629;SDS011;16022;50.884;4.698;2022-07-06T11:11:17;3.63;;;1.83;;
9629;SDS011;16022;50.884;4.698;2022-07-06T11:16:24;3.58;;;1.50;;
9629;SDS011;16022;50.884;4.698;2022-07-06T11:19:00;3.83;;;2.13;;
9629;SDS011;16022;50.884;4.698;2022-07-06T11:21:35;5.43;;;2.30;;
9629;SDS011;16022;50.884;4.698;2022-07-06T11:24:03;3.33;;;1.40;;
9629;SDS011;16022;50.884;4.698;2022-07-06T11:26:31;2.88;;;1.40;;
9629;SDS011;16022;50.884;4.698;2022-07-06T11:29:05;2.75;;;1.38;;
9629;SDS011;16022;50.884;4.698;2022-07-06T11:31:34;4.30;;;1.50;;
9629;SDS011;16022;50.884;4.698;2022-07-06T11:34:03;3.70;;;1.70;;
9629;SDS011;16022;50.884;4.698;2022-07-06T11:36:31;6.30;;;1.80;;
9629;SDS011;16022;50.884;4.698;2022-07-06T11:39:03;4.43;;;1.67;;
9629;SDS011;16022;50.884;4.698;2022-07-06T11:41:33;4.85;;;1.70;;
9629;SDS011;16022;50.884;4.698;2022-07-06T11:44:01;4.97;;;1.80;;
9629;SDS011;16022;50.884;4.698;2022-07-06T11:49:00;3.85;;;1.63;;
9629;SDS011;16022;50.884;4.698;2022-07-06T11:51:29;4.20;;;1.85;;
9629;SDS011;16022;50.884;4.698;2022-07-06T11:53:59;3.88;;;1.85;;
9629;SDS011;16022;50.884;4.698;2022-07-06T11:56:28;5.00;;;1.65;;
9629;SDS011;16022;50.884;4.698;2022-07-06T11:58:57;2.53;;;1.48;;
9629;SDS011;16022;50.884;4.698;2022-07-06T12:01:25;4.88;;;1.92;;
9629;SDS011;16022;50.884;4.698;2022-07-06T12:03:57;3.78;;;1.92;;
9629;SDS011;16022;50.884;4.698;2022-07-06T12:06:26;6.00;;;2.50;;
9629;SDS011;16022;50.884;4.698;2022-07-06T12:08:54;7.35;;;1.83;;
9629;SDS011;16022;50.884;4.698;2022-07-06T12:11:29;4.30;;;1.95;;
9629;SDS011;16022;50.884;4.698;2022-07-06T12:14:00;9.82;;;2.28;;
9629;SDS011;16022;50.884;4.698;2022-07-06T12:16:32;4.78;;;1.95;;
9629;SDS011;16022;50.884;4.698;2022-07-06T12:19:02;3.47;;;1.45;;
9629;SDS011;16022;50.884;4.698;2022-07-06T12:21:33;3.70;;;1.80;;
9629;SDS011;16022;50.884;4.698;2022-07-06T12:24:00;4.25;;;1.83;;
9629;SDS011;16022;50.884;4.698;2022-07-06T12:26:28;3.13;;;1.77;;
9629;SDS011;16022;50.884;4.698;2022-07-06T12:29:09;3.88;;;1.85;;
9629;SDS011;16022;50.884;4.698;2022-07-06T12:31:43;8.23;;;2.17;;
9629;SDS011;16022;50.884;4.698;2022-07-06T12:34:15;15.98;;;2.80;;
9629;SDS011;16022;50.884;4.698;2022-07-06T12:39:20;4.05;;;2.05;;
9629;SDS011;16022;50.884;4.698;2022-07-06T12:42:09;4.50;;;2.20;;
9629;SDS011;16022;50.884;4.698;2022-07-06T12:44:44;4.15;;;1.95;;
9629;SDS011;16022;50.884;4.698;2022-07-06T12:47:12;4.82;;;1.95;;
9629;SDS011;16022;50.884;4.698;2022-07-06T12:49:40;6.20;;;2.75;;
9629;SDS011;16022;50.884;4.698;2022-07-06T12:52:09;5.40;;;2.10;;
9629;SDS011;16022;50.884;4.698;2022-07-06T12:54:44;6.28;;;2.33;;
9629;SDS011;16022;50.884;4.698;2022-07-06T12:59:54;4.78;;;2.25;;
9629;SDS011;16022;50.884;4.698;2022-07-06T13:02:32;4.90;;;2.25;;
9629;SDS011;16022;50.884;4.698;2022-07-06T13:05:24;5.43;;;1.95;;
9629;SDS011;16022;50.884;4.698;2022-07-06T13:07:54;4.18;;;2.30;;
9629;SDS011;16022;50.884;4.698;2022-07-06T13:10:22;6.25;;;2.35;;
9629;SDS011;16022;50.884;4.698;2022-07-06T13:12:50;7.68;;;2.20;;
9629;SDS011;16022;50.884;4.698;2022-07-06T13:15:17;4.88;;;2.15;;
9629;SDS011;16022;50.884;4.698;2022-07-06T13:17:45;9.32;;;2.10;;
9629;SDS011;16022;50.884;4.698;2022-07-06T13:20:12;5.65;;;2.10;;
9629;SDS011;16022;50.884;4.698;2022-07-06T13:22:40;3.03;;;1.90;;
9629;SDS011;16022;50.884;4.698;2022-07-06T13:25:08;4.03;;;2.00;;
9629;SDS011;16022;50.884;4.698;2022-07-06T13:27:35;4.82;;;2.50;;
9629;SDS011;16022;50.884;4.698;2022-07-06T13:30:03;3.95;;;1.88;;
9629;SDS011;16022;50.884;4.698;2022-07-06T13:32:30;4.90;;;2.08;;
9629;SDS011;16022;50.884;4.698;2022-07-06T13:34:59;5.50;;;2.30;;
9629;SDS011;16022;50.884;4.698;2022-07-06T13:37:26;4.32;;;2.20;;
9629;SDS011;16022;50.884;4.698;2022-07-06T13:39:55;4.88;;;1.83;;
9629;SDS011;16022;50.884;4.698;2022-07-06T13:42:22;3.70;;;1.73;;
9629;SDS011;16022;50.884;4.698;2022-07-06T13:44:49;4.60;;;2.08;;
9629;SDS011;16022;50.884;4.698;2022-07-06T13:47:17;6.18;;;2.30;;
9629;SDS011;16022;50.884;4.698;2022-07-06T13:49:44;4.30;;;2.15;;
9629;SDS011;16022;50.884;4.698;2022-07-06T13:52:14;5.22;;;2.22;;
9629;SDS011;16022;50.884;4.698;2022-07-06T13:54:42;3.25;;;1.90;;
9629;SDS011;16022;50.884;4.698;2022-07-06T13:57:09;4.20;;;2.28;;
9629;SDS011;16022;50.884;4.698;2022-07-06T13:59:38;4.18;;;2.10;;
9629;SDS011;16022;50.884;4.698;2022-07-06T14:02:06;3.75;;;1.77;;
9629;SDS011;16022;50.884;4.698;2022-07-06T14:04:34;4.30;;;2.10;;
9629;SDS011;16022;50.884;4.698;2022-07-06T14:07:01;5.25;;;1.80;;
9629;SDS011;16022;50.884;4.698;2022-07-06T14:09:29;4.40;;;2.17;;
9629;SDS011;16022;50.884;4.698;2022-07-06T14:11:56;6.25;;;1.77;;
9629;SDS011;16022;50.884;4.698;2022-07-06T14:14:25;4.05;;;2.00;;
9629;SDS011;16022;50.884;4.698;2022-07-06T14:16:52;3.42;;;1.83;;
9629;SDS011;16022;50.884;4.698;2022-07-06T14:19:21;5.75;;;1.90;;
9629;SDS011;16022;50.884;4.698;2022-07-06T14:21:49;5.22;;;1.80;;
9629;SDS011;16022;50.884;4.698;2022-07-06T14:24:17;3.92;;;1.85;;
9629;SDS011;16022;50.884;4.698;2022-07-06T14:26:44;3.67;;;1.77;;
9629;SDS011;16022;50.884;4.698;2022-07-06T14:29:12;6.57;;;2.20;;
9629;SDS011;16022;50.884;4.698;2022-07-06T14:31:41;5.00;;;2.05;;
9629;SDS011;16022;50.884;4.698;2022-07-06T14:34:08;3.65;;;1.90;;
9629;SDS011;16022;50.884;4.698;2022-07-06T14:36:36;4.38;;;1.70;;
9629;SDS011;16022;50.884;4.698;2022-07-06T14:39:05;4.88;;;1.75;;
9629;SDS011;16022;50.884;4.698;2022-07-06T14:41:32;3.63;;;1.80;;
9629;SDS011;16022;50.884;4.698;2022-07-06T14:44:02;3.35;;;1.67;;
9629;SDS011;16022;50.884;4.698;2022-07-06T14:46:29;4.78;;;1.58;;
9629;SDS011;16022;50.884;4.698;2022-07-06T14:48:57;2.63;;;1.73;;
9629;SDS011;16022;50.884;4.698;2022-07-06T14:51:25;4.22;;;1.65;;
9629;SDS011;16022;50.884;4.698;2022-07-06T14:53:53;4.57;;;1.90;;
9629;SDS011;16022;50.884;4.698;2022-07-06T14:56:20;3.17;;;1.60;;
9629;SDS011;16022;50.884;4.698;2022-07-06T14:58:48;3.45;;;1.77;;
9629;SDS011;16022;50.884;4.698;2022-07-06T15:01:36;4.43;;;2.00;;
9629;SDS011;16022;50.884;4.698;2022-07-06T15:04:03;4.95;;;1.73;;
9629;SDS011;16022;50.884;4.698;2022-07-06T15:06:31;2.30;;;1.60;;
9629;SDS011;16022;50.884;4.698;2022-07-06T15:09:19;3.75;;;1.80;;
9629;SDS011;16022;50.884;4.698;2022-07-06T15:11:46;2.90;;;1.75;;
9629;SDS011;16022;50.884;4.698;2022-07-06T15:14:14;3.13;;;1.73;;
9629;SDS011;16022;50.884;4.698;2022-07-06T15:16:44;5.40;;;1.52;;
9629;SDS011;16022;50.884;4.698;2022-07-06T15:19:11;5.22;;;1.75;;
9629;SDS011;16022;50.884;4.698;2022-07-06T15:21:39;2.95;;;1.75;;
9629;SDS011;16022;50.884;4.698;2022-07-06T15:24:06;5.63;;;2.00;;
9629;SDS011;16022;50.884;4.698;2022-07-06T15:26:35;3.90;;;1.90;;
9629;SDS011;16022;50.884;4.698;2022-07-06T15:29:04;2.58;;;1.77;;
9629;SDS011;16022;50.884;4.698;2022-07-06T15:31:31;3.03;;;1.90;;
9629;SDS011;16022;50.884;4.698;2022-07-06T15:34:00;4.18;;;1.80;;
9629;SDS011;16022;50.884;4.698;2022-07-06T15:36:28;6.75;;;1.75;;
9629;SDS011;16022;50.884;4.698;2022-07-06T15:38:55;4.10;;;1.48;;
9629;SDS011;16022;50.884;4.698;2022-07-06T15:41:24;2.65;;;1.65;;
9629;SDS011;16022;50.884;4.698;2022-07-06T15:43:51;5.75;;;1.75;;
9629;SDS011;16022;50.884;4.698;2022-07-06T15:46:20;4.35;;;1.83;;
9629;SDS011;16022;50.884;4.698;2022-07-06T15:48:48;2.78;;;1.77;;
9629;SDS011;16022;50.884;4.698;2022-07-06T15:51:16;4.45;;;1.70;;
9629;SDS011;16022;50.884;4.698;2022-07-06T15:53:43;3.22;;;1.60;;
9629;SDS011;16022;50.884;4.698;2022-07-06T15:56:12;3.03;;;1.58;;